createdAt,value
2017-08-27T00:01:25.534Z,43.33
2017-08-27T00:03:51.578Z,43.87
2017-08-27T00:06:17.647Z,43.60
2017-08-27T00:08:43.689Z,43.37
2017-08-27T00:11:09.760Z,44.40
2017-08-27T00:13:35.816Z,44.93
2017-08-27T00:16:01.902Z,47.00
2017-08-27T00:18:27.942Z,46.07
2017-08-27T00:20:54.001Z,42.47
2017-08-27T00:23:20.047Z,43.40
2017-08-27T00:25:46.135Z,42.20
2017-08-27T00:28:12.182Z,42.47
2017-08-27T00:30:38.286Z,43.47
2017-08-27T00:33:04.338Z,41.97
2017-08-27T00:35:30.386Z,44.23
2017-08-27T00:37:56.450Z,42.20
2017-08-27T00:40:22.650Z,41.23
2017-08-27T00:42:48.734Z,42.97
2017-08-27T00:45:14.943Z,46.47
2017-08-27T00:47:41.014Z,40.70
2017-08-27T00:50:07.070Z,42.87
2017-08-27T00:52:33.135Z,42.33
2017-08-27T00:54:59.198Z,43.60
2017-08-27T00:57:25.278Z,44.30
2017-08-27T00:59:51.348Z,44.53
2017-08-27T01:02:17.410Z,42.00
2017-08-27T01:04:43.454Z,45.60
2017-08-27T01:07:09.535Z,44.90
2017-08-27T01:09:36.690Z,43.10
2017-08-27T01:12:02.918Z,46.37
2017-08-27T01:14:28.973Z,43.60
2017-08-27T01:16:55.042Z,46.80
2017-08-27T01:19:21.090Z,45.40
2017-08-27T01:21:47.162Z,44.57
2017-08-27T01:24:13.214Z,41.97
2017-08-27T01:26:39.557Z,43.13
2017-08-27T01:29:05.598Z,40.87
2017-08-27T01:31:31.666Z,41.30
2017-08-27T01:33:57.715Z,42.60
2017-08-27T01:36:23.959Z,43.70
2017-08-27T01:38:50.006Z,42.37
2017-08-27T01:41:16.089Z,42.50
2017-08-27T01:43:42.224Z,43.30
2017-08-27T01:46:08.321Z,41.53
2017-08-27T01:48:34.368Z,43.37
2017-08-27T01:51:00.415Z,39.73
2017-08-27T01:53:26.486Z,43.03
2017-08-27T01:55:52.538Z,41.00
2017-08-27T01:58:18.599Z,41.40
2017-08-27T02:00:44.639Z,42.87
2017-08-27T02:03:10.701Z,42.17
2017-08-27T02:05:36.746Z,43.40
2017-08-27T02:08:02.819Z,42.60
2017-08-27T02:10:28.946Z,41.60
2017-08-27T02:12:55.012Z,43.40
2017-08-27T02:15:21.226Z,42.57
2017-08-27T02:17:47.286Z,43.33
2017-08-27T02:20:13.369Z,44.00
2017-08-27T02:22:39.430Z,45.03
2017-08-27T02:25:05.490Z,44.70
2017-08-27T02:27:31.634Z,43.00
2017-08-27T02:29:57.675Z,43.07
2017-08-27T02:32:23.843Z,42.63
2017-08-27T02:34:49.891Z,44.87
2017-08-27T02:37:15.979Z,45.13
2017-08-27T02:39:42.040Z,43.67
2017-08-27T02:42:08.098Z,44.70
2017-08-27T02:44:34.246Z,46.00
2017-08-27T02:47:00.309Z,46.80
2017-08-27T02:49:26.356Z,46.37
2017-08-27T02:51:52.541Z,48.77
2017-08-27T02:54:18.590Z,49.60
2017-08-27T02:56:44.653Z,50.10
2017-08-27T02:59:10.714Z,45.80
2017-08-27T03:01:36.778Z,47.33
2017-08-27T03:04:02.834Z,47.07
2017-08-27T03:06:28.902Z,47.60
2017-08-27T03:08:54.962Z,44.50
2017-08-27T03:11:21.027Z,46.77
2017-08-27T03:13:47.133Z,44.43
2017-08-27T03:16:13.202Z,47.50
2017-08-27T03:18:39.262Z,47.60
2017-08-27T03:21:05.370Z,47.27
2017-08-27T03:23:31.431Z,47.43
2017-08-27T03:25:57.522Z,48.37
2017-08-27T03:28:23.566Z,47.60
2017-08-27T03:30:49.614Z,47.53
2017-08-27T03:33:15.690Z,45.47
2017-08-27T03:35:41.748Z,47.50
2017-08-27T03:38:07.894Z,46.60
2017-08-27T03:40:33.955Z,43.60
2017-08-27T03:43:00.033Z,44.40
2017-08-27T03:45:26.086Z,42.67
2017-08-27T03:47:52.138Z,45.90
2017-08-27T03:50:20.861Z,45.97
2017-08-27T03:52:46.922Z,44.60
2017-08-27T03:55:12.989Z,44.00
2017-08-27T03:57:39.059Z,45.93
2017-08-27T04:00:05.142Z,44.77
2017-08-27T04:02:31.185Z,47.27
2017-08-27T04:04:57.242Z,45.93
2017-08-27T04:07:23.282Z,43.50
2017-08-27T04:09:49.369Z,43.77
2017-08-27T04:12:15.423Z,45.67
2017-08-27T04:14:41.482Z,46.80
2017-08-27T04:17:07.534Z,44.70
2017-08-27T04:19:33.597Z,45.87
2017-08-27T04:21:59.784Z,46.07
2017-08-27T04:24:26.614Z,45.83
2017-08-27T04:26:52.685Z,45.90
2017-08-27T04:29:18.748Z,44.93
2017-08-27T04:31:44.959Z,44.97
2017-08-27T04:34:11.025Z,43.37
2017-08-27T04:36:37.065Z,43.60
2017-08-27T04:39:03.169Z,44.97
2017-08-27T04:41:29.215Z,44.90
2017-08-27T04:43:55.269Z,44.30
2017-08-27T04:46:21.334Z,45.20
2017-08-27T04:48:48.126Z,42.43
2017-08-27T04:51:14.195Z,45.57
2017-08-27T04:53:40.259Z,44.33
2017-08-27T04:56:06.337Z,44.80
2017-08-27T04:58:32.393Z,46.80
2017-08-27T05:00:58.502Z,45.63
2017-08-27T05:03:24.554Z,45.13
2017-08-27T05:05:50.605Z,45.40
2017-08-27T05:08:16.658Z,45.37
2017-08-27T05:10:42.826Z,43.97
2017-08-27T05:13:08.922Z,46.03
2017-08-27T05:15:34.987Z,44.53
2017-08-27T05:18:01.066Z,45.60
2017-08-27T05:20:27.357Z,47.07
2017-08-27T05:22:53.405Z,47.00
2017-08-27T05:25:19.474Z,44.80
2017-08-27T05:27:45.573Z,46.83
2017-08-27T05:30:11.645Z,45.17
2017-08-27T05:32:37.688Z,44.20
2017-08-27T05:35:03.790Z,46.10
2017-08-27T05:37:29.854Z,44.20
2017-08-27T05:39:55.902Z,46.10
2017-08-27T05:42:22.063Z,46.50
2017-08-27T05:44:48.114Z,46.97
2017-08-27T05:47:14.197Z,48.50
2017-08-27T05:49:40.241Z,49.37
2017-08-27T05:52:06.306Z,47.63
2017-08-27T05:54:32.371Z,46.90
2017-08-27T05:56:58.458Z,47.80
2017-08-27T05:59:24.702Z,50.00
2017-08-27T06:01:50.774Z,49.67
2017-08-27T06:04:16.822Z,49.67
2017-08-27T06:06:42.873Z,51.03
2017-08-27T06:09:08.967Z,51.80
2017-08-27T06:11:35.005Z,50.40
2017-08-27T06:14:01.074Z,50.27
2017-08-27T06:16:27.118Z,50.33
2017-08-27T06:18:53.178Z,51.27
2017-08-27T06:21:19.238Z,51.27
2017-08-27T06:23:45.314Z,48.73
2017-08-27T06:26:11.436Z,49.10
2017-08-27T06:28:37.510Z,47.23
2017-08-27T06:31:03.583Z,47.80
2017-08-27T06:33:29.644Z,48.17
2017-08-27T06:35:55.694Z,48.73
2017-08-27T06:38:21.756Z,46.83
2017-08-27T06:40:47.809Z,48.17
2017-08-27T06:43:13.895Z,48.70
2017-08-27T06:45:41.134Z,47.27
2017-08-27T06:48:07.182Z,45.67
2017-08-27T06:50:33.268Z,46.80
2017-08-27T06:52:59.311Z,49.00
2017-08-27T06:55:25.373Z,46.70
2017-08-27T06:57:51.410Z,45.90
2017-08-27T07:00:17.466Z,44.67
2017-08-27T07:02:43.628Z,43.77
2017-08-27T07:05:09.718Z,40.60
2017-08-27T07:07:35.769Z,39.97
2017-08-27T07:10:01.834Z,40.27
2017-08-27T07:12:27.894Z,40.63
2017-08-27T07:14:53.937Z,39.60
2017-08-27T07:17:20.010Z,37.20
2017-08-27T07:19:46.054Z,33.23
2017-08-27T07:22:12.122Z,31.67
2017-08-27T07:24:38.185Z,29.47
2017-08-27T07:27:04.266Z,32.77
2017-08-27T07:29:30.392Z,31.87
2017-08-27T07:31:56.458Z,30.37
2017-08-27T07:34:22.506Z,26.97
2017-08-27T07:36:48.562Z,26.03
2017-08-27T07:39:14.611Z,29.27
2017-08-27T07:41:40.693Z,26.70
2017-08-27T07:44:06.814Z,28.90
2017-08-27T07:46:33.762Z,27.00
2017-08-27T07:48:59.860Z,24.50
2017-08-27T07:51:25.917Z,22.80
2017-08-27T07:53:51.959Z,20.27
2017-08-27T07:56:18.013Z,19.33
2017-08-27T07:58:44.054Z,19.53
2017-08-27T08:01:10.111Z,20.43
2017-08-27T08:03:36.159Z,17.57
2017-08-27T08:06:02.253Z,17.17
2017-08-27T08:08:28.315Z,16.80
2017-08-27T08:10:54.467Z,18.90
2017-08-27T08:13:20.518Z,17.10
2017-08-27T08:15:46.562Z,15.43
2017-08-27T08:18:12.617Z,15.40
2017-08-27T08:20:38.666Z,14.17
2017-08-27T08:23:04.726Z,13.50
2017-08-27T08:25:30.840Z,13.30
2017-08-27T08:27:56.966Z,11.20
2017-08-27T08:30:23.038Z,10.90
2017-08-27T08:32:49.111Z,10.60
2017-08-27T08:35:15.263Z,10.50
2017-08-27T08:37:41.358Z,11.20
2017-08-27T08:40:07.408Z,11.40
2017-08-27T08:42:33.482Z,9.17
2017-08-27T08:44:59.542Z,9.40
2017-08-27T08:47:25.614Z,8.30
2017-08-27T08:49:51.674Z,7.53
2017-08-27T08:52:17.768Z,7.47
2017-08-27T08:54:43.817Z,8.10
2017-08-27T08:57:09.892Z,7.10
2017-08-27T08:59:35.928Z,5.70
2017-08-27T09:02:02.455Z,6.00
2017-08-27T09:04:28.510Z,5.77
2017-08-27T09:06:54.648Z,6.43
2017-08-27T09:09:20.702Z,5.57
2017-08-27T09:11:46.941Z,6.10
2017-08-27T09:14:12.974Z,4.60
2017-08-27T09:16:39.050Z,4.90
2017-08-27T09:19:05.094Z,3.57
2017-08-27T09:21:31.154Z,3.40
2017-08-27T09:23:57.213Z,3.37
2017-08-27T09:26:23.278Z,3.97
2017-08-27T09:28:49.446Z,3.90
2017-08-27T09:31:15.538Z,3.10
2017-08-27T09:33:41.590Z,3.30
2017-08-27T09:36:07.714Z,2.60
2017-08-27T09:38:33.779Z,2.77
2017-08-27T09:40:59.834Z,3.43
2017-08-27T09:43:25.905Z,2.53
2017-08-27T09:45:51.946Z,2.83
2017-08-27T09:48:18.101Z,2.27
2017-08-27T09:50:45.142Z,2.20
2017-08-27T09:53:11.222Z,2.30
2017-08-27T09:55:37.273Z,2.57
2017-08-27T09:58:03.366Z,2.37
2017-08-27T10:00:29.415Z,2.10
2017-08-27T10:02:55.495Z,2.30
2017-08-27T10:05:36.542Z,2.17
2017-08-27T10:08:02.627Z,1.80
2017-08-27T10:10:28.687Z,2.00
2017-08-27T10:12:54.751Z,2.17
2017-08-27T10:15:20.855Z,2.20
2017-08-27T10:17:46.921Z,2.60
2017-08-27T10:20:12.978Z,2.33
2017-08-27T10:22:39.033Z,2.50
2017-08-27T10:25:05.127Z,2.17
2017-08-27T10:27:31.279Z,2.27
2017-08-27T10:29:57.313Z,2.13
2017-08-27T10:32:23.371Z,2.13
2017-08-27T10:34:49.437Z,1.67
2017-08-27T10:37:15.554Z,1.90
2017-08-27T10:39:41.606Z,1.63
2017-08-27T10:42:07.735Z,1.70
2017-08-27T10:44:33.786Z,1.60
2017-08-27T10:47:00.047Z,2.00
2017-08-27T10:49:26.898Z,1.80
2017-08-27T10:51:52.978Z,1.80
2017-08-27T10:54:19.060Z,1.60
2017-08-27T10:56:45.107Z,1.83
2017-08-27T10:59:11.182Z,1.60
2017-08-27T11:01:37.242Z,1.83
2017-08-27T11:04:03.294Z,1.50
2017-08-27T11:06:29.411Z,2.30
2017-08-27T11:08:55.491Z,2.13
2017-08-27T11:11:21.534Z,1.73
2017-08-27T11:13:47.616Z,1.83
2017-08-27T11:16:13.682Z,1.50
2017-08-27T11:18:39.774Z,1.90
2017-08-27T11:21:06.957Z,1.70
2017-08-27T11:23:33.018Z,1.50
2017-08-27T11:25:59.081Z,1.43
2017-08-27T11:28:25.225Z,1.80
2017-08-27T11:30:51.267Z,1.80
2017-08-27T11:33:17.337Z,1.70
2017-08-27T11:35:43.386Z,1.83
2017-08-27T11:38:09.451Z,1.77
2017-08-27T11:40:35.582Z,1.63
2017-08-27T11:43:01.674Z,1.97
2017-08-27T11:45:27.730Z,2.00
2017-08-27T11:47:53.831Z,1.67
2017-08-27T11:50:19.886Z,1.40
2017-08-27T11:52:46.058Z,1.50
2017-08-27T11:55:12.106Z,1.50
2017-08-27T11:57:38.146Z,1.40
2017-08-27T12:00:04.229Z,1.50
2017-08-27T12:02:30.292Z,1.40
2017-08-27T12:04:56.353Z,1.63
2017-08-27T12:07:22.414Z,1.50
2017-08-27T12:09:48.487Z,1.70
2017-08-27T12:12:14.589Z,1.53
2017-08-27T12:14:43.301Z,1.30
2017-08-27T12:17:09.346Z,1.23
2017-08-27T12:19:35.439Z,1.50
2017-08-27T12:22:01.506Z,1.67
2017-08-27T12:24:27.574Z,1.90
2017-08-27T12:26:53.640Z,1.43
2017-08-27T12:29:19.823Z,1.90
2017-08-27T12:31:45.900Z,1.40
2017-08-27T12:34:11.967Z,1.90
2017-08-27T12:36:38.019Z,1.50
2017-08-27T12:39:04.094Z,1.90
2017-08-27T12:41:30.139Z,1.37
2017-08-27T12:43:56.218Z,1.90
2017-08-27T12:46:22.266Z,2.00
2017-08-27T12:48:48.326Z,1.60
2017-08-27T12:51:14.378Z,1.33
2017-08-27T12:53:40.450Z,1.30
2017-08-27T12:56:06.495Z,1.20
2017-08-27T12:58:32.546Z,1.23
2017-08-27T13:00:58.799Z,1.40
2017-08-27T13:03:25.075Z,1.60
2017-08-27T13:05:51.169Z,1.40
2017-08-27T13:08:17.327Z,1.53
2017-08-27T13:10:43.413Z,1.30
2017-08-27T13:13:09.457Z,1.50
2017-08-27T13:15:35.522Z,2.27
2017-08-27T13:18:01.574Z,1.40
2017-08-27T13:20:27.630Z,1.27
2017-08-27T13:22:53.673Z,1.30
2017-08-27T13:25:19.746Z,1.50
2017-08-27T13:27:46.011Z,1.50
2017-08-27T13:30:12.090Z,1.40
2017-08-27T13:32:38.162Z,1.00
2017-08-27T13:35:04.230Z,1.80
2017-08-27T13:37:30.274Z,1.20
2017-08-27T13:39:56.342Z,1.47
2017-08-27T13:42:22.402Z,1.20
2017-08-27T13:44:48.482Z,1.20
2017-08-27T13:47:14.535Z,1.47
2017-08-27T13:49:40.604Z,1.20
2017-08-27T13:52:06.650Z,1.30
2017-08-27T13:54:32.982Z,1.93
2017-08-27T13:56:59.088Z,1.50
2017-08-27T13:59:25.146Z,1.83
2017-08-27T14:01:51.218Z,1.40
2017-08-27T14:04:17.318Z,1.50
2017-08-27T14:06:43.374Z,1.10
2017-08-27T14:09:09.422Z,1.33
2017-08-27T14:11:35.490Z,1.40
2017-08-27T14:14:01.606Z,1.20
2017-08-27T14:16:27.666Z,1.50
2017-08-27T14:18:53.706Z,1.63
2017-08-27T14:21:19.761Z,1.87
2017-08-27T14:23:45.809Z,1.73
2017-08-27T14:26:11.906Z,1.20
2017-08-27T14:28:37.950Z,1.57
2017-08-27T14:31:04.048Z,1.37
2017-08-27T14:36:00.723Z,1.40
2017-08-27T14:38:26.996Z,1.30
2017-08-27T14:40:53.472Z,1.73
2017-08-27T14:43:19.666Z,1.10
2017-08-27T14:45:45.745Z,1.67
2017-08-27T14:48:11.806Z,1.83
2017-08-27T14:50:37.874Z,1.50
2017-08-27T14:53:03.930Z,1.27
2017-08-27T14:55:30.040Z,1.40
2017-08-27T14:57:56.144Z,1.30
2017-08-27T15:00:22.296Z,1.77
2017-08-27T15:02:48.358Z,1.17
2017-08-27T15:05:14.424Z,1.07
2017-08-27T15:07:40.498Z,1.30
2017-08-27T15:10:06.581Z,1.40
2017-08-27T15:12:32.678Z,1.20
2017-08-27T15:14:59.082Z,1.30
2017-08-27T15:17:25.147Z,1.50
2017-08-27T15:19:51.254Z,1.50
2017-08-27T15:22:17.310Z,1.40
2017-08-27T15:24:43.382Z,1.80
2017-08-27T15:27:09.489Z,1.50
2017-08-27T15:29:35.543Z,1.20
2017-08-27T15:32:01.632Z,1.50
2017-08-27T15:34:27.674Z,1.37
2017-08-27T15:36:53.743Z,1.60
2017-08-27T15:39:19.805Z,1.60
2017-08-27T15:41:45.872Z,1.30
2017-08-27T15:44:11.926Z,1.47
2017-08-27T15:46:38.010Z,1.40
2017-08-27T15:49:04.083Z,1.40
2017-08-27T15:51:30.166Z,1.87
2017-08-27T15:53:56.226Z,1.77
2017-08-27T15:56:22.294Z,1.33
2017-08-27T15:58:48.347Z,1.50
2017-08-27T16:01:14.414Z,1.60
2017-08-27T16:03:40.491Z,2.53
2017-08-27T16:06:06.555Z,1.80
2017-08-27T16:08:32.617Z,1.50
2017-08-27T16:10:58.711Z,1.67
2017-08-27T16:13:24.858Z,1.50
2017-08-27T16:15:50.947Z,1.57
2017-08-27T16:18:16.989Z,1.67
2017-08-27T16:20:43.126Z,1.43
2017-08-27T16:23:09.199Z,1.37
2017-08-27T16:25:35.294Z,1.40
2017-08-27T16:28:01.378Z,1.40
2017-08-27T16:30:27.460Z,1.90
2017-08-27T16:32:53.622Z,1.20
2017-08-27T16:35:19.806Z,1.40
2017-08-27T16:37:45.941Z,1.50
2017-08-27T16:40:12.002Z,1.43
2017-08-27T16:42:38.102Z,1.40
2017-08-27T16:45:04.178Z,1.40
2017-08-27T16:47:37.534Z,1.30
2017-08-27T16:50:03.657Z,1.30
2017-08-27T16:52:29.767Z,1.60
2017-08-27T16:54:55.821Z,1.50
2017-08-27T16:57:21.896Z,1.40
2017-08-27T16:59:47.956Z,1.40
2017-08-27T17:02:14.018Z,1.80
2017-08-27T17:04:40.068Z,1.60
2017-08-27T17:07:06.141Z,1.50
2017-08-27T17:09:32.242Z,1.50
2017-08-27T17:11:58.326Z,1.57
2017-08-27T17:14:24.394Z,1.20
2017-08-27T17:16:50.475Z,1.67
2017-08-27T17:19:16.543Z,1.50
2017-08-27T17:21:42.619Z,1.70
2017-08-27T17:24:08.694Z,1.60
2017-08-27T17:26:34.805Z,1.67
2017-08-27T17:29:00.879Z,1.80
2017-08-27T17:31:26.949Z,1.40
2017-08-27T17:33:53.042Z,1.67
2017-08-27T17:36:19.106Z,1.53
2017-08-27T17:38:45.256Z,1.80
2017-08-27T17:41:11.323Z,1.60
2017-08-27T17:43:37.445Z,1.60
2017-08-27T17:46:03.691Z,1.73
2017-08-27T17:48:29.777Z,1.40
2017-08-27T17:50:55.845Z,1.70
2017-08-27T17:53:21.922Z,1.70
2017-08-27T17:55:47.983Z,1.70
2017-08-27T17:58:14.071Z,1.50
2017-08-27T18:00:40.138Z,1.70
2017-08-27T18:03:06.251Z,2.10
2017-08-27T18:05:32.352Z,1.87
2017-08-27T18:07:58.426Z,1.80
2017-08-27T18:10:24.506Z,1.50
2017-08-27T18:12:50.579Z,1.87
2017-08-27T18:15:16.705Z,1.67
2017-08-27T18:17:42.770Z,4.90
2017-08-27T18:20:08.837Z,2.53
2017-08-27T18:22:34.883Z,2.73
2017-08-27T18:25:00.921Z,1.70
2017-08-27T18:27:27.018Z,2.03
2017-08-27T18:29:53.095Z,2.70
2017-08-27T18:32:19.166Z,2.00
2017-08-27T18:34:45.250Z,2.10
2017-08-27T18:37:12.405Z,4.83
2017-08-27T18:39:38.510Z,11.27
2017-08-27T18:42:04.563Z,1.93
2017-08-27T18:44:30.657Z,7.47
2017-08-27T18:46:56.697Z,37.33
2017-08-27T18:49:22.802Z,2.10
2017-08-27T18:51:49.119Z,2.30
2017-08-27T18:54:16.072Z,2.10
2017-08-27T18:56:42.504Z,2.80
2017-08-27T18:59:08.566Z,2.63
2017-08-27T19:01:34.626Z,23.30
2017-08-27T19:04:00.678Z,4.73
2017-08-27T19:06:26.750Z,3.20
2017-08-27T19:08:52.785Z,2.50
2017-08-27T19:11:18.865Z,2.30
2017-08-27T19:13:45.021Z,2.10
2017-08-27T19:16:11.142Z,2.33
2017-08-27T19:18:37.446Z,2.30
2017-08-27T19:21:03.594Z,2.43
2017-08-27T19:23:29.659Z,2.80
2017-08-27T19:25:55.746Z,6.30
2017-08-27T19:28:21.838Z,13.03
2017-08-27T19:30:48.257Z,4.00
2017-08-27T19:33:14.537Z,2.60
2017-08-27T19:35:40.609Z,3.03
2017-08-27T19:38:06.649Z,2.87
2017-08-27T19:40:32.721Z,3.23
2017-08-27T19:42:58.772Z,34.80
2017-08-27T19:45:24.852Z,29.83
2017-08-27T19:47:50.946Z,3.13
2017-08-27T19:50:17.031Z,2.77
2017-08-27T19:52:43.090Z,4.53
2017-08-27T19:55:09.154Z,4.10
2017-08-27T19:57:35.220Z,2.97
2017-08-27T20:00:01.281Z,3.13
2017-08-27T20:02:28.086Z,2.73
2017-08-27T20:04:54.165Z,2.63
2017-08-27T20:07:20.222Z,28.90
2017-08-27T20:09:46.302Z,3.20
2017-08-27T20:12:12.495Z,3.00
2017-08-27T20:14:38.566Z,2.70
2017-08-27T20:17:04.629Z,2.90
2017-08-27T20:19:30.723Z,2.77
2017-08-27T20:21:56.790Z,3.10
2017-08-27T20:24:22.865Z,3.07
2017-08-27T20:26:48.918Z,3.00
2017-08-27T20:29:15.017Z,2.80
2017-08-27T20:31:41.079Z,2.97
2017-08-27T20:34:07.130Z,4.20
2017-08-27T20:36:33.187Z,3.30
2017-08-27T20:38:59.237Z,3.17
2017-08-27T20:41:25.306Z,3.57
2017-08-27T20:43:51.364Z,3.37
2017-08-27T20:46:17.422Z,3.50
2017-08-27T20:48:43.469Z,3.20
2017-08-27T20:51:09.547Z,3.60
2017-08-27T20:53:35.597Z,2.90
2017-08-27T20:56:01.663Z,2.63
2017-08-27T20:58:27.706Z,3.90
2017-08-27T21:00:53.774Z,3.43
2017-08-27T21:03:19.842Z,3.10
2017-08-27T21:05:45.922Z,3.30
2017-08-27T21:08:11.994Z,3.30
2017-08-27T21:10:38.053Z,3.50
2017-08-27T21:13:04.709Z,3.60
2017-08-27T21:15:30.789Z,3.73
2017-08-27T21:17:56.869Z,3.63
2017-08-27T21:20:22.934Z,3.93
2017-08-27T21:22:49.034Z,3.50
2017-08-27T21:25:15.149Z,4.00
2017-08-27T21:27:41.234Z,4.40
2017-08-27T21:30:07.326Z,3.80
2017-08-27T21:32:33.453Z,4.37
2017-08-27T21:34:59.534Z,3.97
2017-08-27T21:37:25.626Z,3.83
2017-08-27T21:39:51.686Z,3.77
2017-08-27T21:42:17.742Z,4.00
2017-08-27T21:44:43.906Z,4.10
2017-08-27T21:47:09.958Z,3.60
2017-08-27T21:49:36.017Z,3.97
2017-08-27T21:52:02.082Z,4.00
2017-08-27T21:54:28.157Z,4.00
2017-08-27T21:56:54.207Z,4.10
2017-08-27T21:59:20.298Z,3.87
2017-08-27T22:01:46.350Z,3.63
2017-08-27T22:04:12.419Z,3.80
2017-08-27T22:06:38.467Z,3.67
2017-08-27T22:09:04.530Z,3.43
2017-08-27T22:11:30.574Z,4.17
2017-08-27T22:13:56.638Z,3.70
2017-08-27T22:16:22.685Z,3.23
2017-08-27T22:18:48.746Z,3.47
2017-08-27T22:21:14.811Z,3.80
2017-08-27T22:23:40.860Z,3.47
2017-08-27T22:26:07.018Z,3.43
2017-08-27T22:28:33.107Z,4.00
2017-08-27T22:30:59.198Z,3.50
2017-08-27T22:33:25.258Z,3.40
2017-08-27T22:35:51.323Z,3.67
2017-08-27T22:38:17.367Z,4.20
2017-08-27T22:40:43.429Z,3.30
2017-08-27T22:43:09.494Z,4.60
2017-08-27T22:45:35.617Z,3.90
2017-08-27T22:48:01.674Z,3.30
2017-08-27T22:50:27.754Z,3.53
2017-08-27T22:52:53.818Z,3.67
2017-08-27T22:55:19.878Z,3.70
2017-08-27T22:57:45.961Z,4.43
2017-08-27T23:00:12.027Z,4.17
2017-08-27T23:02:38.101Z,3.83
2017-08-27T23:05:04.158Z,4.10
2017-08-27T23:07:30.223Z,4.17
2017-08-27T23:09:56.278Z,3.90
2017-08-27T23:12:22.375Z,4.33
2017-08-27T23:14:48.429Z,4.23
2017-08-27T23:17:14.491Z,3.57
2017-08-27T23:19:40.568Z,3.93
2017-08-27T23:22:06.626Z,4.03
2017-08-27T23:24:32.718Z,4.30
2017-08-27T23:26:58.774Z,4.27
2017-08-27T23:29:24.867Z,3.67
2017-08-27T23:31:50.910Z,3.93
2017-08-27T23:34:17.006Z,3.83
2017-08-27T23:36:43.064Z,4.00
2017-08-27T23:39:09.149Z,4.20
2017-08-27T23:41:35.194Z,3.90
2017-08-27T23:44:01.262Z,4.67
2017-08-27T23:46:27.310Z,4.87
2017-08-27T23:48:53.377Z,4.10
2017-08-27T23:51:19.439Z,5.00
2017-08-27T23:53:46.025Z,4.50
2017-08-27T23:56:12.079Z,5.73
2017-08-27T23:58:38.151Z,3.57
